Terminal Aerodrome Forecast
Issued by NWS

Home | Current Version | Previous Version | Text Only | Print | Product List | Glossary On
Versions: 1 2 3 4 5 6 7 8 9 10 11 12 13 14 15 16 17 18 19 20 21 22
000
FTUS43 KSGF 042359 AAA
TAFBBG
TAF AMD
KBBG 042359Z 0400/0424 10008KT 3SM -RA BR BKN007 OVC040
      TEMPO 0400/0402 5SM -RA BR SCT007 OVC025
     FM040200 11007KT 5SM -RA BR OVC015
     FM041000 10004KT 4SM -RA BR OVC008
     FM041200 09004KT P6SM -RA OVC003
     FM041600 00000KT P6SM OVC008
     FM042300 32004KT P6SM BKN035=

USA.gov is the U.S. government's official web portal to all federal, state and local government web resources and services.